Time;durP1;ratioP1;P1;durP2;ratioP2;P2;SDS_P1;SDS_P2;PMS_P1;PMS_P2;Temp;Humidity;BMP_temperature;BMP_pressure;BME280_temperature;BME280_humidity;BME280_pressure;Samples;Min_cycle;Max_cycle;Signal;HPM_P1;HPM_P2
2023/06/19 00:01:45;;;;;;;8.13;5.23;;;;;;;;;;6244272;23;20179;-87
2023/06/19 00:04:15;;;;;;;8.70;5.57;;;;;;;;;;6244815;23;20178;-87
2023/06/19 00:06:43;;;;;;;7.47;5.90;;;;;;;;;;6245061;23;20172;-86
2023/06/19 00:09:13;;;;;;;5.33;4.50;;;;;;;;;;6244726;23;20240;-87
2023/06/19 00:11:41;;;;;;;5.77;4.50;;;;;;;;;;6244676;23;20207;-87
2023/06/19 00:14:10;;;;;;;6.53;5.27;;;;;;;;;;6245252;23;20188;-82
2023/06/19 00:16:40;;;;;;;5.23;4.60;;;;;;;;;;6244556;23;20186;-82
2023/06/19 00:19:08;;;;;;;5.43;4.27;;;;;;;;;;6243639;23;20234;-82
2023/06/19 00:21:38;;;;;;;3.93;3.00;;;;;;;;;;6244532;23;20190;-82
2023/06/19 00:24:10;;;;;;;4.33;3.70;;;;;;;;;;6244311;23;20213;-82
2023/06/19 00:26:39;;;;;;;1.37;0.97;;;;;;;;;;6244000;23;20173;-82
2023/06/19 00:29:11;;;;;;;2.23;1.90;;;;;;;;;;6243657;23;20169;-82
2023/06/19 00:31:39;;;;;;;0.23;0.23;;;;;;;;;;6244357;23;20207;-82
2023/06/19 00:34:08;;;;;;;1.57;1.47;;;;;;;;;;6244058;23;20176;-82
2023/06/19 00:36:40;;;;;;;5.77;5.23;;;;;;;;;;6243836;23;20210;-82
2023/06/19 00:39:10;;;;;;;8.90;8.00;;;;;;;;;;6244334;23;20204;-82
2023/06/19 00:41:39;;;;;;;9.07;8.17;;;;;;;;;;6244542;23;20173;-82
2023/06/19 00:44:07;;;;;;;10.73;5.60;;;;;;;;;;6244029;23;20260;-82
2023/06/19 00:46:37;;;;;;;9.70;8.33;;;;;;;;;;6244234;23;20211;-86
2023/06/19 00:49:05;;;;;;;12.87;8.60;;;;;;;;;;6244388;23;20184;-87
2023/06/19 00:51:34;;;;;;;11.33;8.63;;;;;;;;;;6244395;23;20192;-87
2023/06/19 00:54:02;;;;;;;7.47;6.73;;;;;;;;;;6243952;23;20184;-87
2023/06/19 00:56:34;;;;;;;7.97;6.20;;;;;;;;;;6244715;23;20181;-86
2023/06/19 00:59:03;;;;;;;6.07;4.60;;;;;;;;;;6245088;23;20173;-87
2023/06/19 01:01:32;;;;;;;8.00;6.80;;;;;;;;;;6244438;23;20194;-87
2023/06/19 01:04:00;;;;;;;10.03;7.07;;;;;;;;;;6244799;23;20204;-87
2023/06/19 01:06:37;;;;;;;7.70;6.70;;;;;;;;;;6244169;23;20183;-81
2023/06/19 01:09:07;;;;;;;6.37;5.43;;;;;;;;;;6244297;23;20205;-81
2023/06/19 01:11:41;;;;;;;4.90;4.50;;;;;;;;;;6244207;23;20195;-81
2023/06/19 01:14:11;;;;;;;4.03;3.63;;;;;;;;;;6244187;23;20277;-82
2023/06/19 01:16:39;;;;;;;3.50;3.20;;;;;;;;;;6244114;23;20181;-82
2023/06/19 01:19:11;;;;;;;9.80;3.40;;;;;;;;;;6243544;23;20248;-82
2023/06/19 01:21:40;;;;;;;2.13;1.93;;;;;;;;;;6243825;23;20176;-86
2023/06/19 01:24:10;;;;;;;4.93;2.50;;;;;;;;;;6244591;23;20174;-87
2023/06/19 01:26:38;;;;;;;2.97;2.50;;;;;;;;;;6245190;23;20174;-87
2023/06/19 01:29:07;;;;;;;3.63;2.00;;;;;;;;;;6246596;23;20176;-87
2023/06/19 01:31:38;;;;;;;3.37;1.80;;;;;;;;;;6246769;23;20198;-87
2023/06/19 01:34:08;;;;;;;8.50;2.63;;;;;;;;;;6246492;23;20195;-87
2023/06/19 01:36:37;;;;;;;5.50;2.93;;;;;;;;;;6245982;23;20232;-87
2023/06/19 01:39:08;;;;;;;5.03;2.83;;;;;;;;;;6246669;23;20181;-87
2023/06/19 01:41:39;;;;;;;3.97;3.13;;;;;;;;;;6246622;23;20188;-86
2023/06/19 01:44:08;;;;;;;2.60;2.40;;;;;;;;;;6246281;23;20234;-82
2023/06/19 01:46:37;;;;;;;5.07;4.60;;;;;;;;;;6245489;23;20211;-82
2023/06/19 01:49:08;;;;;;;7.97;5.20;;;;;;;;;;6246301;23;20185;-82
2023/06/19 01:51:37;;;;;;;6.03;5.57;;;;;;;;;;6246196;23;20196;-82
2023/06/19 01:54:06;;;;;;;6.40;5.87;;;;;;;;;;6245327;23;20204;-82
2023/06/19 01:56:34;;;;;;;4.73;4.33;;;;;;;;;;6245982;23;20231;-82
2023/06/19 01:59:04;;;;;;;6.70;6.10;;;;;;;;;;6246333;23;20178;-82
2023/06/19 02:01:35;;;;;;;5.60;5.10;;;;;;;;;;6246278;23;20173;-82
2023/06/19 02:04:04;;;;;;;4.73;4.10;;;;;;;;;;6245356;23;20169;-82
2023/06/19 02:06:33;;;;;;;4.50;4.10;;;;;;;;;;6245545;23;20179;-82
2023/06/19 02:09:02;;;;;;;4.50;4.10;;;;;;;;;;6245877;23;20180;-82
2023/06/19 02:11:31;;;;;;;5.70;5.10;;;;;;;;;;6245552;23;20247;-82
2023/06/19 02:13:59;;;;;;;5.00;4.53;;;;;;;;;;6245190;23;20191;-86
2023/06/19 02:16:30;;;;;;;7.33;5.33;;;;;;;;;;6246016;23;20177;-87
2023/06/19 02:18:58;;;;;;;5.63;5.13;;;;;;;;;;6245546;23;20256;-87
2023/06/19 02:21:28;;;;;;;7.93;7.20;;;;;;;;;;6246123;23;20179;-86
2023/06/19 02:23:56;;;;;;;6.67;5.90;;;;;;;;;;6245947;23;20173;-86
2023/06/19 02:26:27;;;;;;;11.60;10.10;;;;;;;;;;6245930;23;20183;-86
2023/06/19 02:28:55;;;;;;;11.73;10.73;;;;;;;;;;6245936;22;20199;-86
2023/06/19 02:31:24;;;;;;;12.73;11.47;;;;;;;;;;6245530;23;20188;-86
2023/06/19 02:33:54;;;;;;;15.00;13.80;;;;;;;;;;6245367;23;20264;-86
2023/06/19 02:36:22;;;;;;;17.13;15.63;;;;;;;;;;6245007;23;20174;-86
2023/06/19 02:38:51;;;;;;;17.67;16.27;;;;;;;;;;6245520;23;20188;-82
2023/06/19 02:41:19;;;;;;;19.63;17.83;;;;;;;;;;6245450;23;20232;-82
2023/06/19 02:43:48;;;;;;;18.93;17.17;;;;;;;;;;6245111;23;20208;-82
2023/06/19 02:46:17;;;;;;;21.23;19.37;;;;;;;;;;6245226;23;20210;-86
2023/06/19 02:48:46;;;;;;;19.40;17.37;;;;;;;;;;6245785;23;20185;-86
2023/06/19 02:51:16;;;;;;;14.83;11.03;;;;;;;;;;6246150;23;20176;-86
2023/06/19 02:53:44;;;;;;;22.77;20.50;;;;;;;;;;6244850;23;20192;-86
2023/06/19 02:56:13;;;;;;;21.57;19.47;;;;;;;;;;6245663;23;20177;-86
2023/06/19 02:58:42;;;;;;;21.57;19.47;;;;;;;;;;6245960;23;20177;-86
2023/06/19 03:01:10;;;;;;;19.13;17.27;;;;;;;;;;6245110;23;20180;-86
2023/06/19 03:03:40;;;;;;;24.00;21.73;;;;;;;;;;6244645;23;20231;-86
2023/06/19 03:06:09;;;;;;;18.83;17.20;;;;;;;;;;6245427;23;20230;-86
2023/06/19 03:08:39;;;;;;;17.37;15.57;;;;;;;;;;6245686;23;20178;-86
2023/06/19 03:11:11;;;;;;;20.40;16.37;;;;;;;;;;6245383;23;20177;-86
2023/06/19 03:13:45;;;;;;;23.93;21.80;;;;;;;;;;6244893;23;20204;-87
2023/06/19 03:16:15;;;;;;;21.77;19.50;;;;;;;;;;6245673;23;20186;-86
2023/06/19 03:18:44;;;;;;;10.00;8.50;;;;;;;;;;6245196;23;20174;-86
2023/06/19 03:21:13;;;;;;;19.37;17.57;;;;;;;;;;6245252;23;20174;-86
2023/06/19 03:23:43;;;;;;;25.70;23.47;;;;;;;;;;6244714;23;20169;-86
2023/06/19 03:26:12;;;;;;;17.63;15.93;;;;;;;;;;6245184;23;20234;-86
2023/06/19 03:28:40;;;;;;;25.47;23.17;;;;;;;;;;6244566;22;20197;-86
2023/06/19 03:31:09;;;;;;;18.43;14.30;;;;;;;;;;6245789;23;20211;-86
2023/06/19 03:33:37;;;;;;;17.00;14.70;;;;;;;;;;6245200;23;20205;-86
2023/06/19 03:36:06;;;;;;;20.47;15.10;;;;;;;;;;6245207;23;20185;-86
2023/06/19 03:38:35;;;;;;;25.20;22.53;;;;;;;;;;6244985;23;20228;-87
2023/06/19 03:41:05;;;;;;;18.73;16.70;;;;;;;;;;6245683;23;20243;-86
2023/06/19 03:43:35;;;;;;;23.17;20.63;;;;;;;;;;6244958;23;20261;-86
2023/06/19 03:46:04;;;;;;;29.27;23.70;;;;;;;;;;6243784;23;20208;-86
2023/06/19 03:48:32;;;;;;;24.10;21.47;;;;;;;;;;6244963;23;20187;-86
2023/06/19 03:51:01;;;;;;;13.63;12.13;;;;;;;;;;6245120;23;20180;-86
2023/06/19 03:53:29;;;;;;;18.17;14.80;;;;;;;;;;6244452;23;20216;-82
2023/06/19 03:55:58;;;;;;;20.43;13.97;;;;;;;;;;6244935;23;20261;-82
2023/06/19 03:58:27;;;;;;;10.50;9.40;;;;;;;;;;6244637;23;20181;-82
2023/06/19 04:00:56;;;;;;;14.40;10.90;;;;;;;;;;6244677;23;20173;-82
2023/06/19 04:03:24;;;;;;;23.57;15.03;;;;;;;;;;6243864;23;20192;-82
2023/06/19 04:05:53;;;;;;;35.27;29.90;;;;;;;;;;6245096;23;20182;-82
2023/06/19 04:08:25;;;;;;;20.03;16.13;;;;;;;;;;6244934;23;20184;-82
2023/06/19 04:10:53;;;;;;;18.17;13.93;;;;;;;;;;6244562;23;20267;-82
2023/06/19 04:13:22;;;;;;;24.17;18.23;;;;;;;;;;6243872;23;20195;-82
2023/06/19 04:15:51;;;;;;;32.70;23.90;;;;;;;;;;6244699;23;20184;-82
2023/06/19 04:18:22;;;;;;;39.83;27.50;;;;;;;;;;6244398;23;20172;-81
2023/06/19 04:20:50;;;;;;;28.33;14.37;;;;;;;;;;6244437;23;20183;-81
2023/06/19 04:23:19;;;;;;;27.57;17.77;;;;;;;;;;6244608;23;20162;-87
2023/06/19 04:25:47;;;;;;;40.73;27.27;;;;;;;;;;6244843;23;20177;-87
2023/06/19 04:28:16;;;;;;;47.40;29.17;;;;;;;;;;6245440;22;20258;-86
2023/06/19 04:30:44;;;;;;;28.40;19.30;;;;;;;;;;6244753;23;20178;-87
2023/06/19 04:33:14;;;;;;;41.67;23.07;;;;;;;;;;6244651;23;20281;-87
2023/06/19 04:35:43;;;;;;;37.80;21.17;;;;;;;;;;6244945;23;20178;-81
2023/06/19 04:38:14;;;;;;;18.53;8.00;;;;;;;;;;6244092;23;20206;-81
2023/06/19 04:40:43;;;;;;;58.17;26.00;;;;;;;;;;6244649;23;20207;-82
2023/06/19 04:43:12;;;;;;;40.90;21.30;;;;;;;;;;6244881;23;20176;-82
2023/06/19 04:45:41;;;;;;;59.93;35.53;;;;;;;;;;6244066;23;20294;-82
2023/06/19 04:48:09;;;;;;;49.97;27.07;;;;;;;;;;6244017;23;20206;-85
2023/06/19 04:50:39;;;;;;;25.30;15.77;;;;;;;;;;6244109;23;20203;-81
2023/06/19 04:53:08;;;;;;;29.60;16.13;;;;;;;;;;6243492;23;20188;-83
2023/06/19 04:55:37;;;;;;;16.93;10.03;;;;;;;;;;6243673;23;20171;-84
2023/06/19 04:58:05;;;;;;;25.27;13.43;;;;;;;;;;6244137;23;20176;-83
2023/06/19 05:00:34;;;;;;;25.67;14.43;;;;;;;;;;6244803;23;20181;-83
2023/06/19 05:03:03;;;;;;;31.73;15.53;;;;;;;;;;6246170;23;20170;-83
2023/06/19 05:05:32;;;;;;;27.30;13.90;;;;;;;;;;6245999;23;20173;-83
2023/06/19 05:08:03;;;;;;;15.17;10.27;;;;;;;;;;6246568;23;20240;-83
2023/06/19 05:10:31;;;;;;;16.87;9.40;;;;;;;;;;6245916;23;20180;-87
2023/06/19 05:13:00;;;;;;;23.23;15.17;;;;;;;;;;6245472;23;20174;-87
2023/06/19 05:15:28;;;;;;;13.27;9.77;;;;;;;;;;6247262;23;20180;-87
2023/06/19 05:17:57;;;;;;;13.90;8.43;;;;;;;;;;6246846;23;20179;-87
2023/06/19 05:20:25;;;;;;;17.73;10.87;;;;;;;;;;6246351;23;20247;-88
2023/06/19 05:22:54;;;;;;;16.50;12.83;;;;;;;;;;6246355;23;20195;-88
2023/06/19 05:25:24;;;;;;;13.00;7.03;;;;;;;;;;6246352;23;20213;-88
2023/06/19 05:27:52;;;;;;;9.60;6.40;;;;;;;;;;6246436;22;20197;-88
2023/06/19 05:30:21;;;;;;;13.70;7.70;;;;;;;;;;6245582;23;20177;-88
2023/06/19 05:32:50;;;;;;;12.63;7.93;;;;;;;;;;6246460;23;20257;-88
2023/06/19 05:35:18;;;;;;;12.03;7.60;;;;;;;;;;6246394;23;20199;-88
2023/06/19 05:37:47;;;;;;;20.70;7.97;;;;;;;;;;6246194;23;20177;-88
2023/06/19 05:40:15;;;;;;;9.67;6.33;;;;;;;;;;6246244;23;20281;-88
2023/06/19 05:42:45;;;;;;;13.00;9.47;;;;;;;;;;6246226;23;20180;-88
2023/06/19 05:45:14;;;;;;;21.50;7.57;;;;;;;;;;6246837;23;20173;-88
2023/06/19 05:47:42;;;;;;;3.63;2.67;;;;;;;;;;6245570;23;20220;-82
2023/06/19 05:50:11;;;;;;;15.43;7.20;;;;;;;;;;6245732;23;20189;-82
2023/06/19 05:52:42;;;;;;;12.40;6.97;;;;;;;;;;6246189;23;20206;-81
2023/06/19 05:55:12;;;;;;;18.83;9.10;;;;;;;;;;6245813;23;20196;-81
2023/06/19 05:57:40;;;;;;;14.03;6.03;;;;;;;;;;6245659;23;20175;-81
2023/06/19 06:00:13;;;;;;;9.77;5.17;;;;;;;;;;6246314;23;20187;-87
2023/06/19 06:02:42;;;;;;;8.57;6.03;;;;;;;;;;6246142;23;20173;-87
2023/06/19 06:05:11;;;;;;;10.30;6.90;;;;;;;;;;6245106;23;20179;-87
2023/06/19 06:07:39;;;;;;;8.73;6.70;;;;;;;;;;6245823;23;20192;-87
2023/06/19 06:10:09;;;;;;;7.37;6.37;;;;;;;;;;6245647;23;20178;-88
2023/06/19 06:12:37;;;;;;;21.93;8.77;;;;;;;;;;6245803;23;20183;-82
2023/06/19 06:15:06;;;;;;;4.47;3.83;;;;;;;;;;6245123;23;20190;-82
2023/06/19 06:17:36;;;;;;;16.53;11.73;;;;;;;;;;6245879;23;20176;-82
2023/06/19 06:20:09;;;;;;;11.80;7.23;;;;;;;;;;6245606;23;20216;-81
2023/06/19 06:22:38;;;;;;;11.43;8.07;;;;;;;;;;6245770;23;20184;-81
2023/06/19 06:25:07;;;;;;;13.70;7.90;;;;;;;;;;6246554;23;20176;-81
2023/06/19 06:27:39;;;;;;;6.97;5.63;;;;;;;;;;6245350;22;20236;-80
2023/06/19 06:30:11;;;;;;;17.10;11.73;;;;;;;;;;6244864;23;20192;-81
2023/06/19 06:32:41;;;;;;;19.23;11.33;;;;;;;;;;6245548;23;20238;-80
2023/06/19 06:35:10;;;;;;;16.23;13.77;;;;;;;;;;6245493;23;20194;-80
2023/06/19 06:37:38;;;;;;;11.03;8.67;;;;;;;;;;6244963;23;20234;-80
2023/06/19 06:40:10;;;;;;;12.87;11.00;;;;;;;;;;6245440;23;20184;-80
2023/06/19 06:42:39;;;;;;;18.27;13.50;;;;;;;;;;6245683;23;20178;-80
2023/06/19 06:45:09;;;;;;;9.67;8.33;;;;;;;;;;6244667;23;20191;-80
2023/06/19 06:47:37;;;;;;;14.60;12.47;;;;;;;;;;6244664;23;20283;-80
2023/06/19 06:50:08;;;;;;;12.07;7.43;;;;;;;;;;6245046;23;20187;-80
2023/06/19 06:52:37;;;;;;;10.33;7.20;;;;;;;;;;6245277;23;20175;-80
2023/06/19 06:55:06;;;;;;;8.90;6.13;;;;;;;;;;6244366;23;20214;-80
2023/06/19 06:57:35;;;;;;;9.30;6.53;;;;;;;;;;6244722;23;20263;-80
2023/06/19 07:00:04;;;;;;;8.43;6.07;;;;;;;;;;6245214;23;20218;-80
2023/06/19 07:02:32;;;;;;;5.43;3.77;;;;;;;;;;6244848;23;20210;-80
2023/06/19 07:05:01;;;;;;;12.47;8.20;;;;;;;;;;6244378;23;20179;-80
2023/06/19 07:07:31;;;;;;;7.13;5.57;;;;;;;;;;6244539;23;20177;-80
2023/06/19 07:09:59;;;;;;;10.90;7.23;;;;;;;;;;6245369;23;20207;-80
2023/06/19 07:12:28;;;;;;;5.07;4.67;;;;;;;;;;6244974;23;20213;-80
2023/06/19 07:14:57;;;;;;;10.77;8.37;;;;;;;;;;6244046;23;20186;-80
2023/06/19 07:17:25;;;;;;;11.70;8.27;;;;;;;;;;6244672;23;20170;-80
2023/06/19 07:19:54;;;;;;;13.83;9.73;;;;;;;;;;6245208;23;20178;-80
2023/06/19 07:22:22;;;;;;;13.60;7.63;;;;;;;;;;6243540;23;20191;-80
2023/06/19 07:24:52;;;;;;;12.27;9.80;;;;;;;;;;6244320;23;20168;-80
2023/06/19 07:27:27;;;;;;;11.93;10.13;;;;;;;;;;6244362;22;20193;-80
2023/06/19 07:29:55;;;;;;;7.83;7.03;;;;;;;;;;6244741;23;20177;-80
2023/06/19 07:32:24;;;;;;;12.97;9.50;;;;;;;;;;6244500;23;20177;-80
2023/06/19 07:34:53;;;;;;;17.10;10.10;;;;;;;;;;6244212;23;20198;-80
2023/06/19 07:37:21;;;;;;;18.30;12.33;;;;;;;;;;6244655;23;20192;-80
2023/06/19 07:39:51;;;;;;;15.63;10.30;;;;;;;;;;6244114;23;20179;-80
2023/06/19 07:42:21;;;;;;;9.20;6.77;;;;;;;;;;6244343;23;20176;-80
2023/06/19 07:44:49;;;;;;;10.27;7.80;;;;;;;;;;6244636;23;20257;-78
2023/06/19 07:47:20;;;;;;;14.00;8.43;;;;;;;;;;6243880;23;20316;-80
2023/06/19 07:49:48;;;;;;;8.23;7.13;;;;;;;;;;6244608;23;20181;-79
2023/06/19 07:52:17;;;;;;;11.60;7.57;;;;;;;;;;6245050;23;20204;-79
2023/06/19 07:54:55;;;;;;;22.13;11.73;;;;;;;;;;6244260;23;20189;-79
2023/06/19 07:57:25;;;;;;;14.60;9.20;;;;;;;;;;6244632;23;20267;-80
2023/06/19 07:59:55;;;;;;;12.83;10.07;;;;;;;;;;6245025;23;20180;-80
2023/06/19 08:02:24;;;;;;;21.50;7.07;;;;;;;;;;6244929;23;20172;-80
2023/06/19 08:04:53;;;;;;;13.20;9.13;;;;;;;;;;6244050;23;20174;-80
2023/06/19 08:07:21;;;;;;;5.17;4.67;;;;;;;;;;6244036;23;20175;-80
2023/06/19 08:09:50;;;;;;;9.03;7.87;;;;;;;;;;6245274;23;20189;-80
2023/06/19 08:12:36;;;;;;;5.47;4.10;;;;;;;;;;6244707;23;20254;-81
2023/06/19 08:15:05;;;;;;;11.43;8.17;;;;;;;;;;6243328;23;20189;-80
2023/06/19 08:17:35;;;;;;;8.80;7.03;;;;;;;;;;6244190;23;20182;-81
2023/06/19 08:20:05;;;;;;;11.00;8.23;;;;;;;;;;6244074;23;20207;-80
2023/06/19 08:22:35;;;;;;;14.80;8.33;;;;;;;;;;6243415;23;20180;-80
2023/06/19 08:25:04;;;;;;;11.73;8.20;;;;;;;;;;6244481;23;20181;-80
2023/06/19 08:27:33;;;;;;;10.27;6.77;;;;;;;;;;6243943;22;20198;-80
2023/06/19 08:30:03;;;;;;;5.23;3.83;;;;;;;;;;6244135;23;20174;-80
2023/06/19 08:32:33;;;;;;;12.07;9.03;;;;;;;;;;6243943;23;20173;-80
2023/06/19 08:35:01;;;;;;;11.77;8.50;;;;;;;;;;6243843;23;20199;-80
2023/06/19 08:37:30;;;;;;;10.07;7.03;;;;;;;;;;6244059;23;20233;-80
2023/06/19 08:39:59;;;;;;;11.67;8.83;;;;;;;;;;6243529;23;20173;-80
2023/06/19 08:42:28;;;;;;;8.37;7.20;;;;;;;;;;6244329;23;20210;-80
2023/06/19 08:44:57;;;;;;;13.67;8.07;;;;;;;;;;6243986;23;20224;-79
2023/06/19 08:47:31;;;;;;;7.30;4.40;;;;;;;;;;6243656;23;20208;-79
2023/06/19 08:50:00;;;;;;;11.17;4.90;;;;;;;;;;6243734;23;20176;-79
2023/06/19 08:52:33;;;;;;;10.23;6.47;;;;;;;;;;6244465;23;20211;-79
2023/06/19 08:55:02;;;;;;;9.10;7.10;;;;;;;;;;6243457;23;20173;-80
2023/06/19 08:57:37;;;;;;;10.73;6.97;;;;;;;;;;6243254;23;20181;-80
2023/06/19 09:00:10;;;;;;;12.23;8.27;;;;;;;;;;6244027;23;20182;-80
2023/06/19 09:02:44;;;;;;;8.97;8.07;;;;;;;;;;6244336;23;20172;-80
2023/06/19 09:05:20;;;;;;;13.97;8.73;;;;;;;;;;6242867;23;20182;-79
2023/06/19 09:07:56;;;;;;;11.63;6.23;;;;;;;;;;6243972;23;20184;-80
2023/06/19 09:10:24;;;;;;;10.83;6.67;;;;;;;;;;6243706;23;20184;-80
2023/06/19 09:13:00;;;;;;;10.43;6.50;;;;;;;;;;6243773;23;20171;-80
2023/06/19 09:15:29;;;;;;;11.50;8.13;;;;;;;;;;6243489;23;20201;-80
2023/06/19 09:18:03;;;;;;;13.57;8.23;;;;;;;;;;6244371;23;20182;-80
2023/06/19 09:20:32;;;;;;;11.17;6.60;;;;;;;;;;6243754;23;20166;-80
2023/06/19 09:23:01;;;;;;;8.47;7.33;;;;;;;;;;6243588;23;20187;-79
2023/06/19 09:25:30;;;;;;;8.57;6.00;;;;;;;;;;6243957;23;20180;-80
2023/06/19 09:27:59;;;;;;;16.00;9.63;;;;;;;;;;6244135;22;20204;-79
2023/06/19 09:30:27;;;;;;;8.67;5.97;;;;;;;;;;6243590;23;20206;-81
2023/06/19 09:32:55;;;;;;;6.47;4.87;;;;;;;;;;6243578;23;20242;-81
2023/06/19 09:35:25;;;;;;;7.83;4.60;;;;;;;;;;6243542;23;20176;-81
2023/06/19 09:37:55;;;;;;;9.83;6.33;;;;;;;;;;6244312;23;20619;-82
2023/06/19 09:40:24;;;;;;;10.20;6.90;;;;;;;;;;6243011;23;20177;-81
2023/06/19 09:42:56;;;;;;;6.10;4.13;;;;;;;;;;6243793;23;20183;-80
2023/06/19 09:45:25;;;;;;;6.33;4.37;;;;;;;;;;6243607;23;20330;-81
2023/06/19 09:47:54;;;;;;;13.10;8.43;;;;;;;;;;6244361;23;20203;-81
2023/06/19 09:50:27;;;;;;;8.97;7.37;;;;;;;;;;6245657;23;20246;-81
2023/06/19 09:52:59;;;;;;;6.73;4.93;;;;;;;;;;6245736;23;20173;-81
2023/06/19 09:55:30;;;;;;;7.33;4.80;;;;;;;;;;6245311;23;20172;-81
2023/06/19 09:57:59;;;;;;;4.97;4.37;;;;;;;;;;6245241;23;20180;-81
2023/06/19 10:00:32;;;;;;;9.17;5.97;;;;;;;;;;6245908;23;20180;-80
2023/06/19 10:03:02;;;;;;;7.10;5.87;;;;;;;;;;6245639;23;20202;-80
2023/06/19 10:05:31;;;;;;;13.67;8.33;;;;;;;;;;6218984;23;20207;-81
2023/06/19 10:08:02;;;;;;;7.53;5.00;;;;;;;;;;6244909;23;20170;-80
2023/06/19 10:10:30;;;;;;;7.37;4.50;;;;;;;;;;6245196;23;20193;-80
2023/06/19 10:13:12;;;;;;;6.83;5.37;;;;;;;;;;6245687;23;20173;-80
2023/06/19 10:15:42;;;;;;;5.63;4.57;;;;;;;;;;6244887;23;20180;-80
2023/06/19 10:18:16;;;;;;;7.07;4.90;;;;;;;;;;6245452;23;20207;-80
2023/06/19 10:20:45;;;;;;;5.23;3.87;;;;;;;;;;6245633;23;20256;-80
2023/06/19 10:23:18;;;;;;;6.23;3.17;;;;;;;;;;6244915;23;20235;-80
2023/06/19 10:25:49;;;;;;;7.43;5.70;;;;;;;;;;6245158;23;20177;-81
2023/06/19 10:28:18;;;;;;;10.50;6.97;;;;;;;;;;6245593;22;20201;-80
2023/06/19 10:30:53;;;;;;;6.60;5.30;;;;;;;;;;6245013;23;20183;-80
2023/06/19 10:33:22;;;;;;;11.83;7.73;;;;;;;;;;6245168;23;20174;-80
2023/06/19 10:35:50;;;;;;;7.37;5.77;;;;;;;;;;6245252;23;20181;-81
2023/06/19 10:38:20;;;;;;;9.17;4.73;;;;;;;;;;6245545;23;20177;-81
2023/06/19 10:40:49;;;;;;;6.13;4.40;;;;;;;;;;6244424;23;20178;-80
2023/06/19 10:43:22;;;;;;;4.37;3.47;;;;;;;;;;6245571;23;20232;-81
2023/06/19 10:45:51;;;;;;;5.13;4.63;;;;;;;;;;6245561;23;20166;-81
2023/06/19 10:48:21;;;;;;;8.20;5.00;;;;;;;;;;6245312;23;20199;-80
2023/06/19 10:50:50;;;;;;;4.57;4.17;;;;;;;;;;6245174;23;20183;-81
2023/06/19 10:53:27;;;;;;;9.23;5.10;;;;;;;;;;6245211;23;20264;-81
2023/06/19 10:55:56;;;;;;;2.63;2.23;;;;;;;;;;6244578;23;20284;-81
2023/06/19 10:58:25;;;;;;;6.03;2.37;;;;;;;;;;6243972;23;20178;-81
2023/06/19 11:00:53;;;;;;;9.73;4.17;;;;;;;;;;6244754;23;20192;-80
2023/06/19 11:03:22;;;;;;;5.17;4.37;;;;;;;;;;6245524;23;20186;-80
2023/06/19 11:05:51;;;;;;;2.10;1.93;;;;;;;;;;6244619;23;20188;-81
2023/06/19 11:08:20;;;;;;;6.20;4.37;;;;;;;;;;6244918;23;20188;-80
2023/06/19 11:10:51;;;;;;;4.40;3.90;;;;;;;;;;6245143;23;20183;-80
2023/06/19 11:13:20;;;;;;;4.57;3.47;;;;;;;;;;6244737;23;20180;-80
2023/06/19 11:15:50;;;;;;;6.67;5.13;;;;;;;;;;6243941;23;20264;-80
2023/06/19 11:18:20;;;;;;;6.73;5.37;;;;;;;;;;6244963;23;20201;-80
2023/06/19 11:20:50;;;;;;;6.03;4.13;;;;;;;;;;6244417;23;20179;-80
2023/06/19 11:23:19;;;;;;;9.83;7.70;;;;;;;;;;6244192;23;20227;-80
2023/06/19 11:25:48;;;;;;;7.87;5.70;;;;;;;;;;6244164;23;20237;-80
2023/06/19 11:28:22;;;;;;;3.27;2.97;;;;;;;;;;6245408;22;20197;-80
2023/06/19 11:30:51;;;;;;;6.90;5.23;;;;;;;;;;6244209;23;20182;-80
2023/06/19 11:33:22;;;;;;;5.60;3.77;;;;;;;;;;6244093;23;20170;-81
2023/06/19 11:35:51;;;;;;;7.90;3.40;;;;;;;;;;6244888;23;20181;-80
2023/06/19 11:38:21;;;;;;;5.00;3.33;;;;;;;;;;6243992;23;20191;-80
2023/06/19 11:40:49;;;;;;;4.33;2.20;;;;;;;;;;6244524;23;20191;-80
2023/06/19 11:43:29;;;;;;;4.53;3.50;;;;;;;;;;6244578;23;20178;-80
2023/06/19 11:46:03;;;;;;;5.77;5.07;;;;;;;;;;6244396;23;20179;-80
2023/06/19 11:48:32;;;;;;;3.60;3.03;;;;;;;;;;6244281;23;20217;-80
2023/06/19 11:51:01;;;;;;;3.80;3.10;;;;;;;;;;6244537;23;20168;-80
2023/06/19 11:53:29;;;;;;;3.67;3.37;;;;;;;;;;6244693;23;20238;-80
2023/06/19 11:55:58;;;;;;;1.77;1.67;;;;;;;;;;6244617;23;20184;-80
2023/06/19 11:58:28;;;;;;;4.10;2.97;;;;;;;;;;6243403;23;20229;-81
2023/06/19 12:00:56;;;;;;;4.67;2.63;;;;;;;;;;6245055;23;20239;-80
2023/06/19 12:03:25;;;;;;;7.37;5.63;;;;;;;;;;6244173;23;20264;-80
2023/06/19 12:05:53;;;;;;;4.63;2.60;;;;;;;;;;6243810;23;20170;-80
2023/06/19 12:08:22;;;;;;;3.43;2.50;;;;;;;;;;6243584;23;20177;-80
2023/06/19 12:10:51;;;;;;;5.57;3.23;;;;;;;;;;6243752;23;20226;-80
2023/06/19 12:13:20;;;;;;;4.23;3.83;;;;;;;;;;6244039;23;20243;-80
2023/06/19 12:15:50;;;;;;;7.83;4.40;;;;;;;;;;6243728;23;20176;-80
2023/06/19 12:18:21;;;;;;;3.77;2.33;;;;;;;;;;6244376;23;20197;-80
2023/06/19 12:20:50;;;;;;;4.30;3.43;;;;;;;;;;6244593;23;20173;-80
2023/06/19 12:23:19;;;;;;;7.07;3.87;;;;;;;;;;6243784;23;20179;-80
2023/06/19 12:25:47;;;;;;;7.33;5.53;;;;;;;;;;6244225;23;20205;-80
2023/06/19 12:28:18;;;;;;;7.83;3.20;;;;;;;;;;6243627;22;20189;-80
2023/06/19 12:30:48;;;;;;;5.40;3.20;;;;;;;;;;6244668;23;20208;-80
2023/06/19 12:33:18;;;;;;;5.90;5.33;;;;;;;;;;6243741;23;20176;-80
2023/06/19 12:35:46;;;;;;;6.00;4.00;;;;;;;;;;6244436;23;20186;-80
2023/06/19 12:38:15;;;;;;;5.97;3.97;;;;;;;;;;6244134;23;20186;-80
2023/06/19 12:40:43;;;;;;;6.33;3.70;;;;;;;;;;6243930;23;20191;-81
2023/06/19 12:43:12;;;;;;;11.30;6.13;;;;;;;;;;6244171;23;20267;-81
2023/06/19 12:45:41;;;;;;;8.47;5.60;;;;;;;;;;6243687;23;20179;-81
2023/06/19 12:48:11;;;;;;;4.63;3.97;;;;;;;;;;6214221;23;20180;-80
2023/06/19 12:50:41;;;;;;;4.47;3.47;;;;;;;;;;6212988;23;20170;-80
2023/06/19 12:53:11;;;;;;;7.77;4.10;;;;;;;;;;6214025;23;20174;-81
2023/06/19 12:55:39;;;;;;;9.63;3.53;;;;;;;;;;6213757;23;20180;-81
2023/06/19 12:58:28;;;;;;;3.53;2.80;;;;;;;;;;6212850;23;20200;-80
2023/06/19 13:00:56;;;;;;;9.57;3.73;;;;;;;;;;6214145;23;20229;-81
2023/06/19 13:03:25;;;;;;;1.93;1.50;;;;;;;;;;6213478;23;20256;-81
2023/06/19 13:05:55;;;;;;;10.80;3.37;;;;;;;;;;6213570;23;20228;-80
2023/06/19 13:08:23;;;;;;;6.83;2.97;;;;;;;;;;6213422;23;20228;-81
2023/06/19 13:10:52;;;;;;;5.43;3.10;;;;;;;;;;6214137;23;20183;-81
2023/06/19 13:13:21;;;;;;;5.83;4.47;;;;;;;;;;6213440;23;20174;-81
2023/06/19 13:15:49;;;;;;;4.70;2.10;;;;;;;;;;6213506;23;20189;-82
2023/06/19 13:18:19;;;;;;;4.23;3.27;;;;;;;;;;6213658;23;20209;-82
2023/06/19 13:20:51;;;;;;;9.07;7.40;;;;;;;;;;6213813;23;20183;-81
2023/06/19 13:23:21;;;;;;;5.83;5.20;;;;;;;;;;6215204;23;20240;-82
2023/06/19 13:25:49;;;;;;;7.43;4.67;;;;;;;;;;6215514;23;20261;-82
2023/06/19 13:28:18;;;;;;;1.93;1.80;;;;;;;;;;6215899;23;20193;-81
2023/06/19 13:30:47;;;;;;;7.63;5.33;;;;;;;;;;6215623;23;20177;-81
2023/06/19 13:33:16;;;;;;;8.53;5.73;;;;;;;;;;6214794;23;20230;-82
2023/06/19 13:35:44;;;;;;;7.13;4.60;;;;;;;;;;6215700;23;20224;-81
2023/06/19 13:38:13;;;;;;;4.53;3.40;;;;;;;;;;6216106;23;20195;-82
2023/06/19 13:40:43;;;;;;;2.10;1.90;;;;;;;;;;6215585;23;20238;-82
2023/06/19 13:43:12;;;;;;;4.10;2.93;;;;;;;;;;6215238;23;20185;-82
2023/06/19 13:45:40;;;;;;;4.97;3.93;;;;;;;;;;6215382;23;20202;-82
2023/06/19 13:48:10;;;;;;;6.70;3.63;;;;;;;;;;6240111;23;20228;-82
2023/06/19 13:50:39;;;;;;;3.23;2.10;;;;;;;;;;6244973;23;20173;-82
2023/06/19 13:53:07;;;;;;;4.17;2.93;;;;;;;;;;6245568;23;20201;-82
2023/06/19 13:55:36;;;;;;;6.27;1.50;;;;;;;;;;6245882;23;20245;-82
2023/06/19 13:58:06;;;;;;;3.60;2.50;;;;;;;;;;6245904;23;20217;-82
2023/06/19 14:00:36;;;;;;;1.77;1.63;;;;;;;;;;6245698;23;20179;-82
2023/06/19 14:03:06;;;;;;;2.47;2.27;;;;;;;;;;6245266;23;20170;-81
2023/06/19 14:05:36;;;;;;;2.13;1.93;;;;;;;;;;6246159;23;20243;-82
2023/06/19 14:08:08;;;;;;;4.23;2.43;;;;;;;;;;6244621;23;20175;-82
2023/06/19 14:10:36;;;;;;;3.40;1.83;;;;;;;;;;6245285;23;20206;-81
2023/06/19 14:13:06;;;;;;;2.97;2.40;;;;;;;;;;6245527;23;20171;-82
2023/06/19 14:15:35;;;;;;;2.70;1.80;;;;;;;;;;6244529;23;20166;-82
2023/06/19 14:18:03;;;;;;;5.03;2.20;;;;;;;;;;6245116;23;20199;-82
2023/06/19 14:20:32;;;;;;;1.73;1.57;;;;;;;;;;6245482;23;20215;-81
2023/06/19 14:23:01;;;;;;;3.20;2.43;;;;;;;;;;6245592;23;20175;-81
2023/06/19 14:25:29;;;;;;;8.40;5.50;;;;;;;;;;6244662;23;20224;-82
2023/06/19 14:27:58;;;;;;;4.30;2.60;;;;;;;;;;6245331;22;20196;-81
2023/06/19 14:30:28;;;;;;;6.20;2.93;;;;;;;;;;6245461;23;20185;-82
2023/06/19 14:32:56;;;;;;;2.17;1.40;;;;;;;;;;6245791;23;20174;-82
2023/06/19 14:35:25;;;;;;;2.07;1.93;;;;;;;;;;6244898;23;20169;-82
2023/06/19 14:37:53;;;;;;;2.40;1.80;;;;;;;;;;6245233;23;20183;-82
2023/06/19 14:40:25;;;;;;;3.33;2.70;;;;;;;;;;6245510;23;20210;-82
2023/06/19 14:42:54;;;;;;;3.33;3.03;;;;;;;;;;6245083;23;20181;-82
2023/06/19 14:45:23;;;;;;;3.53;2.63;;;;;;;;;;6245053;23;20270;-82
2023/06/19 14:47:53;;;;;;;3.30;2.97;;;;;;;;;;6245127;23;20287;-81